Center Point, Iowa
Current Conditions -  °F | °C
As of 2:15 PM on Wednesday 28 Jan 2015 (Local Time) from KVTI Reporting Station
Overcast Overcast  
Wind Chill: 32°   Ceiling: 1700
Heat Index: 40°   Visibility: 10mi
Dew Point: 32°   Wind: 15mph
Humidity: 73%   Direction: 140°SE
Pressure: 29.85"   Gusts: 25mph
Location:  42.19°N, 91.79°W
Report Text: KVTI 282015Z AUTO 14013G22KT 10SM OVC017 05/00 A2985 RMK AO2 T00450000
Loading
Personal Weather Stations






























Interactive Weather Map New forecast layout! Learn more

10-Day Weather Forecast

Advertisements
Track Severe Weather on mobile